Station Historical Data
Daily Summary for January 12, 2018 Units:  English    Metric   Both
« Previous Day
Next Day »
Daily Weekly Monthly Yearly Custom
  High: Low: Average:
Temperature: 60.8 °F 53.6 °F 57.7 °F
Dew Point: 60.5 °F 52.2 °F 57.1 °F
Humidity: 99 % 95 % 98 %
Wind Speed: 7.0 mph 0.0 mph 1.2 mph
Wind Gust: 13.0 mph - -
Wind:- - East
Pressure: 30.14 in 29.49 in -
Precipitation: 0.47 in    
Historical Graphs
 
 
Tabular Data for January 12, 2018
Time Temperature Dew Point Pressure Wind Wind Speed Wind Gust Humidity Rainfall Rate (Hourly)
00:00 55.8 °F 54.4 °F 30.14 in Calm   3.0 mph 95 % 0.00 in
00:05 55.8 °F 54.4 °F 30.14 in Calm   2.0 mph 95 % 0.00 in
00:10 55.9 °F 54.5 °F 30.13 in Calm   3.0 mph 95 % 0.00 in
00:21 56.0 °F 54.5 °F 30.13 in Calm   5.0 mph 95 % 0.00 in
00:34 56.0 °F 54.5 °F 30.12 in Calm   5.0 mph 95 % 0.00 in
00:39 56.0 °F 54.5 °F 30.12 in Calm   5.0 mph 95 % 0.00 in
00:56 55.7 °F 54.3 °F 30.11 in Calm   3.0 mph 95 % 0.00 in
01:05 55.5 °F 54.1 °F 30.10 in ESE 1.0 mph 3.0 mph 95 % 0.00 in
01:10 55.3 °F 53.9 °F 30.09 in ESE 2.0 mph 7.0 mph 95 % 0.00 in
01:28 54.2 °F 52.8 °F 30.09 in East 3.0 mph 7.0 mph 95 % 0.00 in
01:40 53.8 °F 52.4 °F 30.08 in Calm   7.0 mph 95 % 0.00 in
01:53 53.6 °F 52.2 °F 30.08 in Calm   5.0 mph 95 % 0.00 in
02:07 53.7 °F 52.6 °F 30.07 in ESE 2.0 mph 6.0 mph 96 % 0.00 in
02:28 55.0 °F 54.1 °F 30.06 in East 3.0 mph 7.0 mph 97 % 0.00 in
02:46 55.2 °F 54.3 °F 30.04 in Calm   9.0 mph 97 % 0.00 in
02:53 55.2 °F 54.3 °F 30.04 in Calm   9.0 mph 97 % 0.00 in
02:59 55.2 °F 54.3 °F 30.03 in ENE 4.0 mph 5.0 mph 97 % 0.00 in
03:13 55.3 °F 54.4 °F 30.02 in ESE 3.0 mph 10.0 mph 97 % 0.00 in
03:18 55.4 °F 54.5 °F 30.02 in East 2.0 mph 10.0 mph 97 % 0.00 in
03:24 55.4 °F 54.8 °F 30.01 in SE 1.0 mph 8.0 mph 98 % 0.00 in
03:36 55.5 °F 54.9 °F 30.01 in East 2.0 mph 7.0 mph 98 % 0.00 in
03:43 55.7 °F 55.1 °F 30.00 in NNE 2.0 mph 8.0 mph 98 % 0.00 in
03:51 56.1 °F 55.5 °F 29.99 in East 1.0 mph 9.0 mph 98 % 0.00 in
04:03 56.8 °F 56.2 °F 29.99 in East 1.0 mph 8.0 mph 98 % 0.00 in
04:08 57.1 °F 56.5 °F 29.98 in ENE 1.0 mph 8.0 mph 98 % 0.00 in
04:15 57.3 °F 56.7 °F 29.98 in SE 1.0 mph 6.0 mph 98 % 0.00 in
04:21 57.6 °F 57.0 °F 29.97 in East 3.0 mph 7.0 mph 98 % 0.00 in
04:26 57.8 °F 57.2 °F 29.97 in SE 7.0 mph 9.0 mph 98 % 0.00 in
04:37 58.1 °F 57.5 °F 29.96 in ESE 1.0 mph 11.0 mph 98 % 0.00 in
04:43 58.1 °F 57.5 °F 29.96 in East 1.0 mph 11.0 mph 98 % 0.00 in
04:52 58.3 °F 57.7 °F 29.96 in East 1.0 mph 11.0 mph 98 % 0.01 in
04:59 58.4 °F 57.8 °F 29.95 in NNE 4.0 mph 9.0 mph 98 % 0.03 in
05:06 58.4 °F 57.8 °F 29.95 in SSE 1.0 mph 9.0 mph 98 % 0.04 in
05:12 58.3 °F 57.7 °F 29.95 in South 1.0 mph 8.0 mph 98 % 0.04 in
05:21 58.2 °F 57.6 °F 29.95 in Calm   10.0 mph 98 % 0.05 in
05:27 58.2 °F 57.6 °F 29.95 in ENE 1.0 mph 10.0 mph 98 % 0.05 in
05:42 58.3 °F 57.7 °F 29.95 in NNE 2.0 mph 13.0 mph 98 % 0.06 in
05:52 58.2 °F 57.6 °F 29.94 in East 2.0 mph 13.0 mph 98 % 0.05 in
06:09 57.8 °F 57.2 °F 29.94 in ESE 2.0 mph 8.0 mph 98 % 0.03 in
06:23 57.8 °F 57.2 °F 29.93 in ESE 1.0 mph 10.0 mph 98 % 0.03 in
06:28 57.8 °F 57.2 °F 29.93 in East 3.0 mph 10.0 mph 98 % 0.04 in
06:35 57.7 °F 57.1 °F 29.93 in Calm   8.0 mph 98 % 0.04 in
06:48 57.6 °F 57.0 °F 29.93 in East 1.0 mph 6.0 mph 98 % 0.04 in
06:54 57.4 °F 56.8 °F 29.93 in Calm   6.0 mph 98 % 0.03 in
07:05 57.1 °F 56.5 °F 29.93 in SSE 2.0 mph 5.0 mph 98 % 0.05 in
07:10 57.1 °F 56.5 °F 29.93 in Calm   5.0 mph 98 % 0.06 in
07:25 57.2 °F 56.6 °F 29.92 in ENE 2.0 mph 8.0 mph 98 % 0.11 in
07:31 57.5 °F 56.9 °F 29.92 in ESE 4.0 mph 8.0 mph 98 % 0.11 in
07:44 57.7 °F 57.1 °F 29.91 in SE 6.0 mph 8.0 mph 98 % 0.11 in
07:56 58.2 °F 57.9 °F 29.91 in ENE 3.0 mph 10.0 mph 99 % 0.12 in
08:07 58.1 °F 57.5 °F 29.91 in East 2.0 mph 9.0 mph 98 % 0.10 in
08:49 56.7 °F 56.1 °F 29.90 in Calm   5.0 mph 98 % 0.00 in
09:02 57.1 °F 56.5 °F 29.90 in East 1.0 mph 5.0 mph 98 % 0.00 in
09:11 57.5 °F 57.2 °F 29.89 in Calm   6.0 mph 99 % 0.00 in
09:22 57.9 °F 57.6 °F 29.90 in ENE 2.0 mph 4.0 mph 99 % 0.00 in
09:27 58.0 °F 57.7 °F 29.90 in Calm   7.0 mph 99 % 0.00 in
09:43 58.0 °F 57.7 °F 29.89 in SE 5.0 mph 7.0 mph 99 % 0.00 in
09:53 57.6 °F 57.0 °F 29.89 in East 2.0 mph 6.0 mph 98 % 0.00 in
10:18 57.2 °F 56.6 °F 29.89 in Calm   6.0 mph 98 % 0.00 in
10:26 57.4 °F 57.1 °F 29.89 in East 1.0 mph 3.0 mph 99 % 0.01 in
10:39 57.3 °F 57.0 °F 29.89 in Calm   5.0 mph 99 % 0.03 in
10:50 57.5 °F 57.2 °F 29.87 in ESE 1.0 mph 3.0 mph 99 % 0.04 in
10:55 57.6 °F 57.3 °F 29.87 in SE 2.0 mph 5.0 mph 99 % 0.05 in
11:07 57.6 °F 57.3 °F 29.87 in Calm   5.0 mph 99 % 0.06 in
11:13 57.5 °F 57.2 °F 29.86 in Calm   5.0 mph 99 % 0.07 in
11:34 58.1 °F 57.8 °F 29.85 in Calm   5.0 mph 99 % 0.07 in
11:49 58.5 °F 58.2 °F 29.83 in Calm   4.0 mph 99 % 0.06 in
11:57 58.7 °F 58.4 °F 29.83 in Calm   3.0 mph 99 % 0.05 in
12:16 58.9 °F 58.6 °F 29.81 in Calm   2.0 mph 99 % 0.02 in
12:27 58.8 °F 58.5 °F 29.81 in Calm   3.0 mph 99 % 0.01 in
12:44 59.2 °F 58.9 °F 29.80 in Calm   6.0 mph 99 % 0.00 in
12:50 59.4 °F 59.1 °F 29.79 in Calm   6.0 mph 99 % 0.00 in
12:55 59.6 °F 59.3 °F 29.79 in ESE 1.0 mph 5.0 mph 99 % 0.00 in
13:14 59.7 °F 59.4 °F 29.78 in ENE 1.0 mph 4.0 mph 99 % 0.00 in
13:24 59.8 °F 59.5 °F 29.77 in ESE 2.0 mph 5.0 mph 99 % 0.00 in
13:48 60.3 °F 60.0 °F 29.76 in Calm   4.0 mph 99 % 0.00 in
13:55 60.5 °F 60.2 °F 29.75 in Calm   4.0 mph 99 % 0.00 in
14:08 60.7 °F 60.4 °F 29.75 in East 2.0 mph 5.0 mph 99 % 0.00 in
14:14 60.8 °F 60.5 °F 29.74 in Calm   5.0 mph 99 % 0.00 in
14:47 60.5 °F 60.2 °F 29.73 in East 3.0 mph 10.0 mph 99 % 0.00 in
14:53 60.5 °F 60.2 °F 29.73 in East 1.0 mph 10.0 mph 99 % 0.00 in
15:09 59.9 °F 59.3 °F 29.73 in Calm   6.0 mph 98 % 0.00 in
15:37 58.3 °F 57.7 °F 29.74 in Calm   8.0 mph 98 % 0.00 in
15:45 58.2 °F 57.6 °F 29.73 in ESE 1.0 mph 5.0 mph 98 % 0.00 in
15:52 58.1 °F 57.5 °F 29.72 in Calm   4.0 mph 98 % 0.00 in
16:01 58.2 °F 57.6 °F 29.72 in Calm   5.0 mph 98 % 0.00 in
16:07 58.0 °F 57.4 °F 29.72 in East 1.0 mph 5.0 mph 98 % 0.00 in
16:14 57.9 °F 57.3 °F 29.72 in East 1.0 mph 5.0 mph 98 % 0.00 in
16:39 58.2 °F 57.9 °F 29.71 in SE 1.0 mph 5.0 mph 99 % 0.00 in
16:54 58.3 °F 58.0 °F 29.70 in Calm   5.0 mph 99 % 0.00 in
17:00 58.4 °F 58.1 °F 29.70 in ESE 2.0 mph 5.0 mph 99 % 0.00 in
17:22 58.4 °F 58.1 °F 29.70 in East 2.0 mph 7.0 mph 99 % 0.01 in
17:44 57.5 °F 56.9 °F 29.69 in East 3.0 mph 5.0 mph 98 % 0.02 in
17:59 57.6 °F 57.3 °F 29.68 in East 2.0 mph 9.0 mph 99 % 0.03 in
18:06 57.9 °F 57.6 °F 29.68 in Calm   9.0 mph 99 % 0.03 in
18:15 58.0 °F 57.7 °F 29.67 in East 1.0 mph 8.0 mph 99 % 0.03 in
18:21 57.9 °F 57.6 °F 29.66 in East 3.0 mph 7.0 mph 99 % 0.03 in
18:37 57.6 °F 57.3 °F 29.66 in Calm   7.0 mph 99 % 0.03 in
18:50 57.8 °F 57.5 °F 29.65 in East 2.0 mph 8.0 mph 99 % 0.06 in
19:21 58.3 °F 58.0 °F 29.64 in Calm   8.0 mph 99 % 0.08 in
19:33 58.3 °F 58.0 °F 29.63 in East 5.0 mph 5.0 mph 99 % 0.08 in
19:41 58.6 °F 58.3 °F 29.62 in ENE 3.0 mph 5.0 mph 99 % 0.07 in
20:05 59.3 °F 59.0 °F 29.61 in Calm   5.0 mph 99 % 0.00 in
20:10 59.4 °F 59.1 °F 29.61 in Calm   5.0 mph 99 % 0.00 in
20:29 59.5 °F 59.2 °F 29.60 in East 1.0 mph 5.0 mph 99 % 0.00 in
20:42 59.5 °F 59.2 °F 29.59 in Calm   5.0 mph 99 % 0.01 in
20:50 59.5 °F 59.2 °F 29.59 in SE 1.0 mph 5.0 mph 99 % 0.01 in
20:56 59.7 °F 59.4 °F 29.60 in ESE 1.0 mph 4.0 mph 99 % 0.01 in
21:24 59.7 °F 59.4 °F 29.59 in ESE 2.0 mph 3.0 mph 99 % 0.01 in
21:30 59.8 °F 59.5 °F 29.58 in Calm   3.0 mph 99 % 0.01 in
21:38 59.7 °F 59.4 °F 29.58 in Calm   5.0 mph 99 % 0.00 in
21:51 59.7 °F 59.4 °F 29.55 in East 1.0 mph 9.0 mph 99 % 0.00 in
21:56 59.5 °F 59.2 °F 29.55 in ESE 1.0 mph 9.0 mph 99 % 0.00 in
22:02 59.4 °F 59.1 °F 29.56 in Calm   9.0 mph 99 % 0.00 in
22:07 59.1 °F 58.8 °F 29.55 in ESE 1.0 mph 6.0 mph 99 % 0.00 in
22:26 58.1 °F 57.8 °F 29.54 in Calm   4.0 mph 99 % 0.00 in
22:37 57.5 °F 57.2 °F 29.53 in East 6.0 mph 6.0 mph 99 % 0.00 in
22:48 56.6 °F 56.0 °F 29.52 in ESE 1.0 mph 7.0 mph 98 % 0.00 in
22:53 56.4 °F 55.8 °F 29.52 in Calm   7.0 mph 98 % 0.00 in
23:01 56.1 °F 55.8 °F 29.53 in Calm   3.0 mph 99 % 0.00 in
23:13 56.1 °F 55.8 °F 29.52 in Calm   3.0 mph 99 % 0.00 in
23:25 56.1 °F 55.8 °F 29.51 in ESE 2.0 mph 5.0 mph 99 % 0.01 in
23:33 56.6 °F 56.3 °F 29.50 in Calm   5.0 mph 99 % 0.01 in
23:40 56.9 °F 56.6 °F 29.49 in ESE 2.0 mph 5.0 mph 99 % 0.01 in
23:55 56.6 °F 56.3 °F 29.49 in ESE 1.0 mph 7.0 mph 99 % 0.02 in
MarylandWx.com
Compliments of Weather Underground - 5.75 mb